createdAt,value
2022-08-20T00:01:01.593Z,20.00
2022-08-20T00:03:28.846Z,18.17
2022-08-20T00:05:56.684Z,18.85
2022-08-20T00:08:23.347Z,17.90
2022-08-20T00:10:53.637Z,18.42
2022-08-20T00:13:21.878Z,17.98
2022-08-20T00:15:48.232Z,18.70
2022-08-20T00:18:14.922Z,19.05
2022-08-20T00:20:41.268Z,17.98
2022-08-20T00:23:10.502Z,19.00
2022-08-20T00:25:37.383Z,18.25
2022-08-20T00:28:03.746Z,18.83
2022-08-20T00:30:30.138Z,18.52
2022-08-20T00:32:56.466Z,19.15
2022-08-20T00:35:22.846Z,17.77
2022-08-20T00:37:49.288Z,18.42
2022-08-20T00:40:22.375Z,17.83
2022-08-20T00:42:49.195Z,18.65
2022-08-20T00:45:15.552Z,18.45
2022-08-20T00:47:41.849Z,18.60
2022-08-20T00:50:17.675Z,18.17
2022-08-20T00:52:49.958Z,17.83
2022-08-20T00:55:16.614Z,19.58
2022-08-20T00:57:59.732Z,17.65
2022-08-20T01:00:27.942Z,18.35
2022-08-20T01:02:55.825Z,18.50
2022-08-20T01:05:22.401Z,17.98
2022-08-20T01:07:56.440Z,18.20
2022-08-20T01:10:23.582Z,17.17
2022-08-20T01:12:53.219Z,18.67
2022-08-20T01:15:30.786Z,18.85
2022-08-20T01:17:57.830Z,18.02
2022-08-20T01:23:08.856Z,18.23
2022-08-20T01:25:35.307Z,17.27
2022-08-20T01:28:02.235Z,18.42
2022-08-20T01:30:29.034Z,17.88
2022-08-20T01:32:55.436Z,17.55
2022-08-20T01:35:22.033Z,17.70
2022-08-20T01:37:48.667Z,17.83
2022-08-20T01:40:15.292Z,17.38
2022-08-20T01:42:52.793Z,18.08
2022-08-20T01:45:27.689Z,17.92
2022-08-20T01:47:54.753Z,17.95
2022-08-20T01:50:21.270Z,17.23
2022-08-20T01:52:47.582Z,17.63
2022-08-20T01:55:14.007Z,17.65
2022-08-20T01:57:40.638Z,18.23
2022-08-20T02:00:07.645Z,18.42
2022-08-20T02:02:37.339Z,17.33
2022-08-20T02:05:03.726Z,17.08
2022-08-20T02:07:30.127Z,17.42
2022-08-20T02:09:56.583Z,17.95
2022-08-20T02:12:23.090Z,18.05
2022-08-20T02:14:49.805Z,17.33
2022-08-20T02:17:16.793Z,17.60
2022-08-20T02:19:43.218Z,17.17
2022-08-20T02:22:10.671Z,17.63
2022-08-20T02:24:37.083Z,17.92
2022-08-20T02:27:03.709Z,16.77
2022-08-20T02:29:30.387Z,17.38
2022-08-20T02:32:25.009Z,17.73
2022-08-20T02:34:43.326Z,17.38
2022-08-20T02:37:09.886Z,17.52
2022-08-20T02:39:36.285Z,17.17
2022-08-20T02:42:02.889Z,17.42
2022-08-20T02:44:29.234Z,18.17
2022-08-20T02:46:55.610Z,17.25
2022-08-20T02:49:22.088Z,17.58
2022-08-20T02:51:48.486Z,16.77
2022-08-20T02:54:15.044Z,18.25
2022-08-20T02:56:41.470Z,17.75
2022-08-20T02:59:07.798Z,18.67
2022-08-20T03:01:34.296Z,17.15
2022-08-20T03:04:00.652Z,17.00
2022-08-20T03:06:27.014Z,17.42
2022-08-20T03:08:53.382Z,17.40
2022-08-20T03:11:19.794Z,17.48
2022-08-20T03:13:46.106Z,17.48
2022-08-20T03:16:12.708Z,17.38
2022-08-20T03:18:39.014Z,17.27
2022-08-20T03:21:05.475Z,17.45
2022-08-20T03:23:32.393Z,17.77
2022-08-20T03:26:01.501Z,18.15
2022-08-20T03:28:29.733Z,17.35
2022-08-20T03:30:56.006Z,16.92
2022-08-20T03:33:22.354Z,16.77
2022-08-20T03:35:48.641Z,17.35
2022-08-20T03:38:15.066Z,18.33
2022-08-20T03:40:41.379Z,17.30
2022-08-20T03:43:07.729Z,17.55
2022-08-20T03:45:34.087Z,16.90
2022-08-20T03:48:00.354Z,18.08
2022-08-20T03:50:26.802Z,17.05
2022-08-20T03:52:53.242Z,17.42
2022-08-20T03:55:19.667Z,17.65
2022-08-20T04:00:30.126Z,17.40
2022-08-20T04:02:56.522Z,17.52
2022-08-20T04:05:22.850Z,17.05
2022-08-20T04:07:54.119Z,17.25
2022-08-20T04:10:22.493Z,17.20
2022-08-20T04:12:53.165Z,17.65
2022-08-20T04:15:19.926Z,17.90
2022-08-20T04:17:47.538Z,17.52
2022-08-20T04:20:14.165Z,16.85
2022-08-20T04:22:40.522Z,17.25
2022-08-20T04:25:07.477Z,17.23
2022-08-20T04:27:34.089Z,17.30
2022-08-20T04:30:00.473Z,16.88
2022-08-20T04:32:26.990Z,17.50
2022-08-20T04:34:53.342Z,16.63
2022-08-20T04:37:19.711Z,16.88
2022-08-20T04:39:46.126Z,16.13
2022-08-20T04:42:12.615Z,16.52
2022-08-20T04:44:38.992Z,16.35
2022-08-20T04:47:05.447Z,16.45
2022-08-20T04:49:31.760Z,15.23
2022-08-20T04:51:58.091Z,14.95
2022-08-20T04:54:24.484Z,15.70
2022-08-20T04:56:50.915Z,15.60
2022-08-20T04:59:17.256Z,15.70
2022-08-20T05:01:43.684Z,15.82
2022-08-20T05:04:10.042Z,14.57
2022-08-20T05:06:36.595Z,14.75
2022-08-20T05:09:02.987Z,15.40
2022-08-20T05:11:35.430Z,13.27
2022-08-20T05:14:03.002Z,14.60
2022-08-20T05:16:29.521Z,14.02
2022-08-20T05:18:55.809Z,14.57
2022-08-20T05:21:22.168Z,13.77
2022-08-20T05:23:48.565Z,14.25
2022-08-20T05:26:14.901Z,14.27
2022-08-20T05:28:53.914Z,13.77
2022-08-20T05:31:24.652Z,13.68
2022-08-20T05:33:59.174Z,14.48
2022-08-20T05:36:25.729Z,13.52
2022-08-20T05:38:52.259Z,13.68
2022-08-20T05:41:27.675Z,13.38
2022-08-20T05:43:56.113Z,13.32
2022-08-20T05:46:22.446Z,12.77
2022-08-20T05:48:50.028Z,12.88
2022-08-20T05:51:16.631Z,12.88
2022-08-20T05:53:42.985Z,13.73
2022-08-20T05:56:09.735Z,13.32
2022-08-20T05:58:36.179Z,13.48
2022-08-20T06:01:02.672Z,12.93
2022-08-20T06:03:29.177Z,13.20
2022-08-20T06:05:55.722Z,12.77
2022-08-20T06:08:22.231Z,13.40
2022-08-20T06:10:48.623Z,12.85
2022-08-20T06:13:15.030Z,12.55
2022-08-20T06:15:41.402Z,13.20
2022-08-20T06:18:12.364Z,12.52
2022-08-20T06:20:54.167Z,12.20
2022-08-20T06:23:20.996Z,12.23
2022-08-20T06:25:47.415Z,13.13
2022-08-20T06:28:13.775Z,12.18
2022-08-20T06:30:40.374Z,12.48
2022-08-20T06:33:06.846Z,12.30
2022-08-20T06:35:33.206Z,12.43
2022-08-20T06:37:59.551Z,11.93
2022-08-20T06:40:25.881Z,12.70
2022-08-20T06:42:52.402Z,12.63
2022-08-20T06:45:18.846Z,11.93
2022-08-20T06:47:45.498Z,12.35
2022-08-20T06:50:13.966Z,12.38
2022-08-20T06:52:53.030Z,11.60
2022-08-20T06:55:26.783Z,12.68
2022-08-20T06:57:53.451Z,12.52
2022-08-20T07:00:19.904Z,12.90
2022-08-20T07:02:46.253Z,13.13
2022-08-20T07:05:12.619Z,11.77
2022-08-20T07:07:39.153Z,12.50
2022-08-20T07:10:05.506Z,12.18
2022-08-20T07:12:31.876Z,12.10
2022-08-20T07:14:58.179Z,11.85
2022-08-20T07:17:24.467Z,12.27
2022-08-20T07:19:50.833Z,13.40
2022-08-20T07:22:17.145Z,13.20
2022-08-20T07:24:48.529Z,12.88
2022-08-20T07:27:15.414Z,13.50
2022-08-20T07:29:41.757Z,12.95
2022-08-20T07:32:08.218Z,13.13
2022-08-20T07:34:36.088Z,13.18
2022-08-20T07:37:02.493Z,13.00
2022-08-20T07:39:30.044Z,13.93
2022-08-20T07:41:58.541Z,12.27
2022-08-20T07:44:28.503Z,12.75
2022-08-20T07:46:57.562Z,12.77
2022-08-20T07:49:23.994Z,12.65
2022-08-20T07:51:50.350Z,12.93
2022-08-20T07:54:16.710Z,13.45
2022-08-20T07:56:43.073Z,13.45
2022-08-20T07:59:09.670Z,13.07
2022-08-20T08:01:36.083Z,13.13
2022-08-20T08:04:02.479Z,12.75
2022-08-20T08:06:30.997Z,13.68
2022-08-20T08:08:57.866Z,12.52
2022-08-20T08:11:24.322Z,13.23
2022-08-20T08:13:50.829Z,13.27
2022-08-20T08:16:17.283Z,13.77
2022-08-20T08:18:43.650Z,13.30
2022-08-20T08:21:10.214Z,13.68
2022-08-20T08:23:36.561Z,13.32
2022-08-20T08:26:03.317Z,14.00
2022-08-20T08:28:29.705Z,13.93
2022-08-20T08:30:56.061Z,13.30
2022-08-20T08:33:22.643Z,12.80
2022-08-20T08:35:52.209Z,13.45
2022-08-20T08:38:18.558Z,14.00
2022-08-20T08:40:44.890Z,12.93
2022-08-20T08:43:11.253Z,14.23
2022-08-20T08:45:38.574Z,13.52
2022-08-20T08:48:05.414Z,13.70
2022-08-20T08:50:53.529Z,14.20
2022-08-20T08:53:18.346Z,14.25
2022-08-20T08:55:44.746Z,15.00
2022-08-20T08:58:16.850Z,13.88
2022-08-20T09:00:47.343Z,14.35
2022-08-20T09:03:23.122Z,13.80
2022-08-20T09:05:49.520Z,13.98
2022-08-20T09:08:17.171Z,14.13
2022-08-20T09:10:43.910Z,14.65
2022-08-20T09:13:10.402Z,14.43
2022-08-20T09:15:37.053Z,14.20
2022-08-20T09:18:03.481Z,15.18
2022-08-20T09:20:29.895Z,15.45
2022-08-20T09:22:56.423Z,14.57
2022-08-20T09:25:22.867Z,15.30
2022-08-20T09:27:49.257Z,14.93
2022-08-20T09:30:17.288Z,15.02
2022-08-20T09:32:46.222Z,15.60
2022-08-20T09:35:12.507Z,15.23
2022-08-20T09:37:38.870Z,14.88
2022-08-20T09:42:59.536Z,15.25
2022-08-20T09:45:26.037Z,15.27
2022-08-20T09:47:56.646Z,15.13
2022-08-20T09:50:24.134Z,15.55
2022-08-20T09:52:51.123Z,15.32
2022-08-20T09:55:20.012Z,15.10
2022-08-20T09:57:46.451Z,14.82
2022-08-20T10:00:12.802Z,17.13
2022-08-20T10:02:39.138Z,15.90
2022-08-20T10:05:05.442Z,15.32
2022-08-20T10:07:33.861Z,15.38
2022-08-20T10:10:00.293Z,15.77
2022-08-20T10:12:26.659Z,14.95
2022-08-20T10:14:53.021Z,15.93
2022-08-20T10:17:19.402Z,15.57
2022-08-20T10:19:45.813Z,15.45
2022-08-20T10:22:12.297Z,15.45
2022-08-20T10:24:38.706Z,15.65
2022-08-20T10:27:05.281Z,15.02
2022-08-20T10:29:31.585Z,15.40
2022-08-20T10:31:57.893Z,15.38
2022-08-20T10:34:24.202Z,16.33
2022-08-20T10:36:50.551Z,15.73
2022-08-20T10:39:16.849Z,16.13
2022-08-20T10:41:43.266Z,15.43
2022-08-20T10:44:09.737Z,15.82
2022-08-20T10:46:36.163Z,15.27
2022-08-20T10:49:02.821Z,15.80
2022-08-20T10:51:32.776Z,15.10
2022-08-20T10:56:25.928Z,15.55
2022-08-20T10:58:52.282Z,15.93
2022-08-20T11:01:31.264Z,15.65
2022-08-20T11:04:00.505Z,15.15
2022-08-20T11:06:26.849Z,15.68
2022-08-20T11:08:53.280Z,16.02
2022-08-20T11:11:23.362Z,16.38
2022-08-20T11:13:49.657Z,15.85
2022-08-20T11:16:16.066Z,16.30
2022-08-20T11:18:47.382Z,21.08
2022-08-20T11:21:14.489Z,23.98
2022-08-20T11:23:41.053Z,25.63
2022-08-20T11:26:07.413Z,24.85
2022-08-20T11:28:33.790Z,28.23
2022-08-20T11:31:00.171Z,28.63
2022-08-20T11:33:26.687Z,29.60
2022-08-20T11:35:53.010Z,30.40
2022-08-20T11:38:19.318Z,29.63
2022-08-20T11:40:45.614Z,30.85
2022-08-20T11:43:16.426Z,30.10
2022-08-20T11:45:43.180Z,30.58
2022-08-20T11:48:09.570Z,29.40
2022-08-20T11:50:35.950Z,29.60
2022-08-20T11:53:02.264Z,30.35
2022-08-20T11:55:30.553Z,30.98
2022-08-20T11:57:59.696Z,30.73
2022-08-20T12:00:31.763Z,30.65
2022-08-20T12:02:59.990Z,28.77
2022-08-20T12:05:26.628Z,30.65
2022-08-20T12:07:53.169Z,29.73
2022-08-20T12:10:19.502Z,29.30
2022-08-20T12:12:46.498Z,28.95
2022-08-20T12:15:12.866Z,29.13
2022-08-20T12:17:39.434Z,29.92
2022-08-20T12:20:05.773Z,31.70
2022-08-20T12:22:32.226Z,29.25
2022-08-20T12:24:58.625Z,28.73
2022-08-20T12:27:24.997Z,28.55
2022-08-20T12:29:51.531Z,28.45
2022-08-20T12:32:17.992Z,31.30
2022-08-20T12:34:44.342Z,29.58
2022-08-20T12:37:12.861Z,31.08
2022-08-20T12:39:44.382Z,30.15
2022-08-20T12:42:10.766Z,30.25
2022-08-20T12:44:37.109Z,31.42
2022-08-20T12:47:03.538Z,29.42
2022-08-20T12:49:29.926Z,30.85
2022-08-20T12:51:56.281Z,30.67
2022-08-20T12:54:22.657Z,31.48
2022-08-20T12:56:49.038Z,30.40
2022-08-20T12:59:15.403Z,30.67
2022-08-20T13:01:41.808Z,30.50
2022-08-20T13:04:08.286Z,30.83
2022-08-20T13:06:34.634Z,29.27
2022-08-20T13:09:00.958Z,30.02
2022-08-20T13:11:27.497Z,30.60
2022-08-20T13:13:53.978Z,31.35
2022-08-20T13:16:20.313Z,30.58
2022-08-20T13:18:46.650Z,30.42
2022-08-20T13:21:13.063Z,31.88
2022-08-20T13:23:39.365Z,30.02
2022-08-20T13:26:12.589Z,30.60
2022-08-20T13:28:38.918Z,30.10
2022-08-20T13:31:05.269Z,29.30
2022-08-20T13:33:31.579Z,32.25
2022-08-20T13:35:58.143Z,29.65
2022-08-20T13:38:24.479Z,29.95
2022-08-20T13:40:51.274Z,30.80
2022-08-20T13:43:17.666Z,31.13
2022-08-20T13:45:43.977Z,31.45
2022-08-20T13:48:14.682Z,30.67
2022-08-20T13:50:41.950Z,30.55
2022-08-20T13:53:08.297Z,31.02
2022-08-20T13:55:34.649Z,31.55
2022-08-20T13:58:05.128Z,30.98
2022-08-20T14:00:32.364Z,32.08
2022-08-20T14:02:59.094Z,30.25
2022-08-20T14:05:25.665Z,30.48
2022-08-20T14:07:52.275Z,29.65
2022-08-20T14:10:18.610Z,30.73
2022-08-20T14:12:45.788Z,31.55
2022-08-20T14:15:12.155Z,31.70
2022-08-20T14:17:38.575Z,30.90
2022-08-20T14:20:05.222Z,32.63
2022-08-20T14:22:32.974Z,30.08
2022-08-20T14:24:59.297Z,30.50
2022-08-20T14:27:30.680Z,31.05
2022-08-20T14:29:57.804Z,30.73
2022-08-20T14:32:24.266Z,30.77
2022-08-20T14:34:50.626Z,31.92
2022-08-20T14:37:17.013Z,29.80
2022-08-20T14:42:27.114Z,30.17
2022-08-20T14:44:53.407Z,30.38
2022-08-20T14:47:19.793Z,29.95
2022-08-20T14:49:46.068Z,29.48
2022-08-20T14:52:12.595Z,29.30
2022-08-20T14:54:38.910Z,29.27
2022-08-20T14:57:05.436Z,30.10
2022-08-20T14:59:39.253Z,28.67
2022-08-20T15:02:05.565Z,29.67
2022-08-20T15:04:31.866Z,30.45
2022-08-20T15:06:59.096Z,29.70
2022-08-20T15:09:37.562Z,28.37
2022-08-20T15:12:04.116Z,28.27
2022-08-20T15:14:30.468Z,28.65
2022-08-20T15:16:57.981Z,27.63
2022-08-20T15:19:24.600Z,26.48
2022-08-20T15:21:50.932Z,27.08
2022-08-20T15:24:19.576Z,27.77
2022-08-20T15:26:46.452Z,25.88
2022-08-20T15:29:12.870Z,26.17
2022-08-20T15:31:49.578Z,26.20
2022-08-20T15:34:17.750Z,25.10
2022-08-20T15:36:44.918Z,25.15
2022-08-20T15:39:11.331Z,25.38
2022-08-20T15:41:37.680Z,24.92
2022-08-20T15:44:04.106Z,25.48
2022-08-20T15:46:33.537Z,25.35
2022-08-20T15:49:04.003Z,24.17
2022-08-20T15:51:30.390Z,24.45
2022-08-20T15:53:56.722Z,22.98
2022-08-20T15:56:23.068Z,24.08
2022-08-20T15:58:49.574Z,24.23
2022-08-20T16:01:25.406Z,23.27
2022-08-20T16:03:52.197Z,22.73
2022-08-20T16:06:18.566Z,22.83
2022-08-20T16:08:44.974Z,22.20
2022-08-20T16:11:11.434Z,23.02
2022-08-20T16:13:37.821Z,21.92
2022-08-20T16:16:05.421Z,21.13
2022-08-20T16:18:31.833Z,22.35
2022-08-20T16:21:03.083Z,20.65
2022-08-20T16:23:30.036Z,21.05
2022-08-20T16:25:56.438Z,20.27
2022-08-20T16:28:22.985Z,19.83
2022-08-20T16:30:49.327Z,20.27
2022-08-20T16:33:15.714Z,20.50
2022-08-20T16:35:42.027Z,19.67
2022-08-20T16:38:08.818Z,19.58
2022-08-20T16:40:35.266Z,19.92
2022-08-20T16:43:01.631Z,19.55
2022-08-20T16:45:28.062Z,19.58
2022-08-20T16:47:54.517Z,18.33
2022-08-20T16:50:21.087Z,19.45
2022-08-20T16:52:47.548Z,19.42
2022-08-20T16:55:14.764Z,19.52
2022-08-20T16:57:41.124Z,18.42
2022-08-20T17:00:07.605Z,19.02
2022-08-20T17:02:34.010Z,18.02
2022-08-20T17:05:00.462Z,17.80
2022-08-20T17:07:29.844Z,16.90
2022-08-20T17:09:59.782Z,18.55
2022-08-20T17:12:29.192Z,18.42
2022-08-20T17:14:55.565Z,17.73
2022-08-20T17:17:21.926Z,17.38
2022-08-20T17:19:48.255Z,17.73
2022-08-20T17:22:16.984Z,18.23
2022-08-20T17:24:43.457Z,17.17
2022-08-20T17:27:10.210Z,16.98
2022-08-20T17:29:37.020Z,18.90
2022-08-20T17:32:03.646Z,17.75
2022-08-20T17:34:29.991Z,16.30
2022-08-20T17:36:56.365Z,17.00
2022-08-20T17:39:22.809Z,16.90
2022-08-20T17:41:49.227Z,16.85
2022-08-20T17:44:15.791Z,16.23
2022-08-20T17:46:42.095Z,17.35
2022-08-20T17:49:08.457Z,16.83
2022-08-20T17:51:34.857Z,17.08
2022-08-20T17:54:04.004Z,17.88
2022-08-20T17:56:30.403Z,16.73
2022-08-20T17:59:03.208Z,16.85
2022-08-20T18:01:30.051Z,17.42
2022-08-20T18:03:56.498Z,17.20
2022-08-20T18:06:26.165Z,15.88
2022-08-20T18:08:55.185Z,17.33
2022-08-20T18:11:22.268Z,17.35
2022-08-20T18:13:48.754Z,16.35
2022-08-20T18:16:17.084Z,16.33
2022-08-20T18:18:50.900Z,16.85
2022-08-20T18:23:50.058Z,16.23
2022-08-20T18:26:16.512Z,16.33
2022-08-20T18:28:43.072Z,17.02
2022-08-20T18:31:09.601Z,15.95
2022-08-20T18:33:36.208Z,15.95
2022-08-20T18:36:02.602Z,16.05
2022-08-20T18:38:29.134Z,16.02
2022-08-20T18:40:55.532Z,16.48
2022-08-20T18:43:21.934Z,16.55
2022-08-20T18:45:48.363Z,17.60
2022-08-20T18:48:14.758Z,17.02
2022-08-20T18:50:41.116Z,17.63
2022-08-20T18:53:07.673Z,18.63
2022-08-20T18:55:34.122Z,18.45
2022-08-20T18:58:00.992Z,19.67
2022-08-20T19:00:30.556Z,17.60
2022-08-20T19:02:57.288Z,17.83
2022-08-20T19:05:23.830Z,19.55
2022-08-20T19:07:50.124Z,18.95
2022-08-20T19:10:23.891Z,18.88
2022-08-20T19:12:54.653Z,17.65
2022-08-20T19:15:20.981Z,19.27
2022-08-20T19:17:47.346Z,19.27
2022-08-20T19:20:13.927Z,18.10
2022-08-20T19:22:40.288Z,18.70
2022-08-20T19:25:06.731Z,19.13
2022-08-20T19:27:33.193Z,19.45
2022-08-20T19:29:59.516Z,18.45
2022-08-20T19:32:25.865Z,19.52
2022-08-20T19:34:52.197Z,18.67
2022-08-20T19:37:35.348Z,19.23
2022-08-20T19:40:04.971Z,19.15
2022-08-20T19:42:31.923Z,19.33
2022-08-20T19:47:48.810Z,20.25
2022-08-20T19:50:15.340Z,18.58
2022-08-20T19:52:41.867Z,20.10
2022-08-20T19:55:08.236Z,20.17
2022-08-20T19:57:34.793Z,18.85
2022-08-20T20:00:01.134Z,19.70
2022-08-20T20:02:27.874Z,19.85
2022-08-20T20:04:54.886Z,19.33
2022-08-20T20:07:22.421Z,18.42
2022-08-20T20:09:49.326Z,18.35
2022-08-20T20:12:22.658Z,19.45
2022-08-20T20:14:49.543Z,20.05
2022-08-20T20:17:21.033Z,18.58
2022-08-20T20:19:49.338Z,18.67
2022-08-20T20:22:19.293Z,18.27
2022-08-20T20:24:46.617Z,16.70
2022-08-20T20:27:14.818Z,18.65
2022-08-20T20:29:46.393Z,19.17
2022-08-20T20:32:12.736Z,19.08
2022-08-20T20:34:55.770Z,18.42
2022-08-20T20:37:34.795Z,18.48
2022-08-20T20:40:19.074Z,19.08
2022-08-20T20:42:46.162Z,18.70
2022-08-20T20:45:12.594Z,18.77
2022-08-20T20:47:38.961Z,18.02
2022-08-20T20:50:05.358Z,17.35
2022-08-20T20:52:32.207Z,18.08
2022-08-20T20:54:58.585Z,19.80
2022-08-20T20:57:32.671Z,18.20
2022-08-20T21:00:04.694Z,20.05
2022-08-20T21:02:31.782Z,18.08
2022-08-20T21:04:58.177Z,18.88
2022-08-20T21:07:24.485Z,19.20
2022-08-20T21:09:50.947Z,18.27
2022-08-20T21:12:17.398Z,17.90
2022-08-20T21:14:43.709Z,18.13
2022-08-20T21:17:10.218Z,18.17
2022-08-20T21:19:40.252Z,17.17
2022-08-20T21:22:11.712Z,19.60
2022-08-20T21:24:38.034Z,17.92
2022-08-20T21:27:04.553Z,17.33
2022-08-20T21:29:32.737Z,18.45
2022-08-20T21:31:59.490Z,18.30
2022-08-20T21:34:25.790Z,18.00
2022-08-20T21:36:52.637Z,17.92
2022-08-20T21:39:20.710Z,18.05
2022-08-20T21:41:47.007Z,18.35
2022-08-20T21:44:13.318Z,17.88
2022-08-20T21:46:39.738Z,18.60
2022-08-20T21:49:06.277Z,18.77
2022-08-20T21:51:33.095Z,18.63
2022-08-20T21:53:59.527Z,19.02
2022-08-20T21:56:26.042Z,18.40
2022-08-20T21:58:55.136Z,18.70
2022-08-20T22:01:21.708Z,18.67
2022-08-20T22:03:50.492Z,18.02
2022-08-20T22:08:44.726Z,18.77
2022-08-20T22:11:11.139Z,18.80
2022-08-20T22:13:37.710Z,18.10
2022-08-20T22:16:04.548Z,18.48
2022-08-20T22:18:31.064Z,18.88
2022-08-20T22:20:57.771Z,19.15
2022-08-20T22:23:24.129Z,20.45
2022-08-20T22:25:50.500Z,18.90
2022-08-20T22:28:16.818Z,18.10
2022-08-20T22:30:43.931Z,18.92
2022-08-20T22:33:10.268Z,18.75
2022-08-20T22:35:36.698Z,18.48
2022-08-20T22:38:03.180Z,20.73
2022-08-20T22:40:29.628Z,19.23
2022-08-20T22:42:56.049Z,19.35
2022-08-20T22:45:22.357Z,19.92
2022-08-20T22:47:48.701Z,18.80
2022-08-20T22:50:15.016Z,19.48
2022-08-20T22:52:41.338Z,19.02
2022-08-20T22:55:07.747Z,19.77
2022-08-20T22:57:35.942Z,19.10
2022-08-20T23:00:02.513Z,19.08
2022-08-20T23:02:32.233Z,19.52
2022-08-20T23:04:58.603Z,20.15
2022-08-20T23:07:24.939Z,18.48
2022-08-20T23:09:51.297Z,19.45
2022-08-20T23:12:17.789Z,19.95
2022-08-20T23:14:44.142Z,19.70
2022-08-20T23:17:13.396Z,19.25
2022-08-20T23:19:40.226Z,19.48
2022-08-20T23:22:06.978Z,19.08
2022-08-20T23:24:33.383Z,19.20
2022-08-20T23:27:00.178Z,20.00
2022-08-20T23:29:26.718Z,20.00
2022-08-20T23:31:53.131Z,20.33
2022-08-20T23:34:19.510Z,19.35
2022-08-20T23:36:45.858Z,19.77
2022-08-20T23:39:12.200Z,18.88
2022-08-20T23:41:38.582Z,19.27
2022-08-20T23:44:25.453Z,19.10
2022-08-20T23:46:53.187Z,19.53
2022-08-20T23:49:21.018Z,20.65
2022-08-20T23:54:37.992Z,19.75
2022-08-20T23:57:08.329Z,20.67
2022-08-20T23:59:34.965Z,20.23
